sensor_id;sensor_type;location;lat;lon;timestamp;P1;durP1;ratioP1;P2;durP2;ratioP2
9224;SDS011;4647;48.072;11.616;2024-02-14T00:00:11;4.57;;;2.60;;
9224;SDS011;4647;48.072;11.616;2024-02-14T00:02:41;4.47;;;3.00;;
9224;SDS011;4647;48.072;11.616;2024-02-14T00:05:14;3.67;;;2.60;;
9224;SDS011;4647;48.072;11.616;2024-02-14T00:07:43;5.07;;;2.90;;
9224;SDS011;4647;48.072;11.616;2024-02-14T00:10:14;4.17;;;2.47;;
9224;SDS011;4647;48.072;11.616;2024-02-14T00:12:42;3.47;;;2.47;;
9224;SDS011;4647;48.072;11.616;2024-02-14T00:15:11;4.90;;;2.60;;
9224;SDS011;4647;48.072;11.616;2024-02-14T00:17:41;5.13;;;2.70;;
9224;SDS011;4647;48.072;11.616;2024-02-14T00:20:10;5.27;;;3.00;;
9224;SDS011;4647;48.072;11.616;2024-02-14T00:22:39;4.53;;;2.30;;
9224;SDS011;4647;48.072;11.616;2024-02-14T00:25:07;3.90;;;2.73;;
9224;SDS011;4647;48.072;11.616;2024-02-14T00:27:39;2.93;;;2.27;;
9224;SDS011;4647;48.072;11.616;2024-02-14T00:30:08;3.40;;;2.20;;
9224;SDS011;4647;48.072;11.616;2024-02-14T00:32:37;3.00;;;1.97;;
9224;SDS011;4647;48.072;11.616;2024-02-14T00:35:06;3.87;;;2.10;;
9224;SDS011;4647;48.072;11.616;2024-02-14T00:37:35;3.77;;;2.20;;
9224;SDS011;4647;48.072;11.616;2024-02-14T00:40:04;3.57;;;2.03;;
9224;SDS011;4647;48.072;11.616;2024-02-14T00:42:34;3.93;;;2.30;;
9224;SDS011;4647;48.072;11.616;2024-02-14T00:45:06;3.07;;;1.87;;
9224;SDS011;4647;48.072;11.616;2024-02-14T00:47:36;3.13;;;1.90;;
9224;SDS011;4647;48.072;11.616;2024-02-14T00:50:05;3.63;;;1.83;;
9224;SDS011;4647;48.072;11.616;2024-02-14T00:52:34;2.23;;;2.00;;
9224;SDS011;4647;48.072;11.616;2024-02-14T00:55:03;3.67;;;1.77;;
9224;SDS011;4647;48.072;11.616;2024-02-14T00:57:32;2.27;;;1.73;;
9224;SDS011;4647;48.072;11.616;2024-02-14T01:00:00;3.67;;;2.00;;
9224;SDS011;4647;48.072;11.616;2024-02-14T01:02:31;2.30;;;1.73;;
9224;SDS011;4647;48.072;11.616;2024-02-14T01:05:00;2.97;;;1.90;;
9224;SDS011;4647;48.072;11.616;2024-02-14T01:07:29;1.90;;;1.50;;
9224;SDS011;4647;48.072;11.616;2024-02-14T01:09:57;2.67;;;2.00;;
9224;SDS011;4647;48.072;11.616;2024-02-14T01:12:26;2.37;;;1.47;;
9224;SDS011;4647;48.072;11.616;2024-02-14T01:14:54;3.20;;;1.93;;
9224;SDS011;4647;48.072;11.616;2024-02-14T01:17:23;2.27;;;1.53;;
9224;SDS011;4647;48.072;11.616;2024-02-14T01:19:54;2.87;;;1.90;;
9224;SDS011;4647;48.072;11.616;2024-02-14T01:22:23;2.87;;;1.80;;
9224;SDS011;4647;48.072;11.616;2024-02-14T01:24:52;3.10;;;1.70;;
9224;SDS011;4647;48.072;11.616;2024-02-14T01:27:20;3.07;;;1.87;;
9224;SDS011;4647;48.072;11.616;2024-02-14T01:29:49;2.40;;;1.60;;
9224;SDS011;4647;48.072;11.616;2024-02-14T01:32:20;3.93;;;1.60;;
9224;SDS011;4647;48.072;11.616;2024-02-14T01:34:48;3.13;;;1.80;;
9224;SDS011;4647;48.072;11.616;2024-02-14T01:37:19;2.73;;;1.57;;
9224;SDS011;4647;48.072;11.616;2024-02-14T01:39:48;2.67;;;1.87;;
9224;SDS011;4647;48.072;11.616;2024-02-14T01:42:17;3.03;;;2.10;;
9224;SDS011;4647;48.072;11.616;2024-02-14T01:44:45;2.83;;;1.70;;
9224;SDS011;4647;48.072;11.616;2024-02-14T01:47:14;2.73;;;1.63;;
9224;SDS011;4647;48.072;11.616;2024-02-14T01:49:43;3.57;;;1.87;;
9224;SDS011;4647;48.072;11.616;2024-02-14T01:52:12;3.17;;;2.17;;
9224;SDS011;4647;48.072;11.616;2024-02-14T01:54:44;3.37;;;1.83;;
9224;SDS011;4647;48.072;11.616;2024-02-14T01:57:12;2.93;;;1.90;;
9224;SDS011;4647;48.072;11.616;2024-02-14T01:59:41;3.23;;;2.00;;
9224;SDS011;4647;48.072;11.616;2024-02-14T02:02:11;3.13;;;2.10;;
9224;SDS011;4647;48.072;11.616;2024-02-14T02:04:39;3.60;;;2.47;;
9224;SDS011;4647;48.072;11.616;2024-02-14T02:07:08;4.70;;;2.10;;
9224;SDS011;4647;48.072;11.616;2024-02-14T02:09:36;4.73;;;2.20;;
9224;SDS011;4647;48.072;11.616;2024-02-14T02:12:07;3.63;;;1.80;;
9224;SDS011;4647;48.072;11.616;2024-02-14T02:14:36;3.10;;;2.10;;
9224;SDS011;4647;48.072;11.616;2024-02-14T02:17:05;2.43;;;1.60;;
9224;SDS011;4647;48.072;11.616;2024-02-14T02:19:37;1.97;;;1.70;;
9224;SDS011;4647;48.072;11.616;2024-02-14T02:22:07;2.10;;;1.60;;
9224;SDS011;4647;48.072;11.616;2024-02-14T02:24:38;2.33;;;1.70;;
9224;SDS011;4647;48.072;11.616;2024-02-14T02:27:06;3.17;;;1.73;;
9224;SDS011;4647;48.072;11.616;2024-02-14T02:29:35;2.77;;;1.80;;
9224;SDS011;4647;48.072;11.616;2024-02-14T02:32:03;2.63;;;1.60;;
9224;SDS011;4647;48.072;11.616;2024-02-14T02:34:35;2.00;;;1.47;;
9224;SDS011;4647;48.072;11.616;2024-02-14T02:37:04;3.70;;;1.83;;
9224;SDS011;4647;48.072;11.616;2024-02-14T02:39:34;2.07;;;1.70;;
9224;SDS011;4647;48.072;11.616;2024-02-14T02:42:06;2.00;;;1.67;;
9224;SDS011;4647;48.072;11.616;2024-02-14T02:44:37;3.67;;;1.50;;
9224;SDS011;4647;48.072;11.616;2024-02-14T02:47:07;2.93;;;1.53;;
9224;SDS011;4647;48.072;11.616;2024-02-14T02:49:37;2.90;;;1.70;;
9224;SDS011;4647;48.072;11.616;2024-02-14T02:52:06;2.47;;;1.70;;
9224;SDS011;4647;48.072;11.616;2024-02-14T02:54:35;2.33;;;1.60;;
9224;SDS011;4647;48.072;11.616;2024-02-14T02:57:06;2.20;;;1.50;;
9224;SDS011;4647;48.072;11.616;2024-02-14T02:59:35;1.80;;;1.60;;
9224;SDS011;4647;48.072;11.616;2024-02-14T03:02:07;2.93;;;1.90;;
9224;SDS011;4647;48.072;11.616;2024-02-14T03:04:37;2.60;;;1.87;;
9224;SDS011;4647;48.072;11.616;2024-02-14T03:07:06;3.93;;;1.70;;
9224;SDS011;4647;48.072;11.616;2024-02-14T03:09:35;2.93;;;1.93;;
9224;SDS011;4647;48.072;11.616;2024-02-14T03:12:06;2.77;;;1.60;;
9224;SDS011;4647;48.072;11.616;2024-02-14T03:14:35;2.00;;;1.80;;
9224;SDS011;4647;48.072;11.616;2024-02-14T03:17:04;2.57;;;1.80;;
9224;SDS011;4647;48.072;11.616;2024-02-14T03:19:33;2.80;;;1.73;;
9224;SDS011;4647;48.072;11.616;2024-02-14T03:22:04;2.40;;;1.63;;
9224;SDS011;4647;48.072;11.616;2024-02-14T03:24:34;2.33;;;1.70;;
9224;SDS011;4647;48.072;11.616;2024-02-14T03:27:05;3.93;;;1.73;;
9224;SDS011;4647;48.072;11.616;2024-02-14T03:29:34;3.00;;;1.57;;
9224;SDS011;4647;48.072;11.616;2024-02-14T03:32:04;3.30;;;1.80;;
9224;SDS011;4647;48.072;11.616;2024-02-14T03:34:33;4.33;;;1.73;;
9224;SDS011;4647;48.072;11.616;2024-02-14T03:37:02;2.73;;;1.70;;
9224;SDS011;4647;48.072;11.616;2024-02-14T03:39:32;2.83;;;1.67;;
9224;SDS011;4647;48.072;11.616;2024-02-14T03:42:00;2.60;;;1.37;;
9224;SDS011;4647;48.072;11.616;2024-02-14T03:44:35;2.00;;;1.80;;
9224;SDS011;4647;48.072;11.616;2024-02-14T03:47:03;2.97;;;1.67;;
9224;SDS011;4647;48.072;11.616;2024-02-14T03:49:32;2.97;;;1.63;;
9224;SDS011;4647;48.072;11.616;2024-02-14T03:52:00;1.60;;;1.40;;
9224;SDS011;4647;48.072;11.616;2024-02-14T03:54:34;1.93;;;1.60;;
9224;SDS011;4647;48.072;11.616;2024-02-14T03:57:03;2.00;;;1.60;;
9224;SDS011;4647;48.072;11.616;2024-02-14T03:59:37;2.27;;;1.87;;
9224;SDS011;4647;48.072;11.616;2024-02-14T04:02:06;2.80;;;1.70;;
9224;SDS011;4647;48.072;11.616;2024-02-14T04:04:36;1.90;;;1.70;;
9224;SDS011;4647;48.072;11.616;2024-02-14T04:07:04;2.00;;;1.60;;
9224;SDS011;4647;48.072;11.616;2024-02-14T04:09:33;2.00;;;1.33;;
9224;SDS011;4647;48.072;11.616;2024-02-14T04:12:02;3.43;;;1.50;;
9224;SDS011;4647;48.072;11.616;2024-02-14T04:14:31;3.23;;;1.50;;
9224;SDS011;4647;48.072;11.616;2024-02-14T04:17:02;1.97;;;1.50;;
9224;SDS011;4647;48.072;11.616;2024-02-14T04:19:32;2.13;;;1.50;;
9224;SDS011;4647;48.072;11.616;2024-02-14T04:22:01;2.60;;;1.70;;
9224;SDS011;4647;48.072;11.616;2024-02-14T04:24:29;2.53;;;1.63;;
9224;SDS011;4647;48.072;11.616;2024-02-14T04:27:00;2.30;;;1.50;;
9224;SDS011;4647;48.072;11.616;2024-02-14T04:29:29;2.70;;;1.30;;
9224;SDS011;4647;48.072;11.616;2024-02-14T04:31:58;2.33;;;1.40;;
9224;SDS011;4647;48.072;11.616;2024-02-14T04:34:29;4.43;;;1.57;;
9224;SDS011;4647;48.072;11.616;2024-02-14T04:36:58;2.50;;;1.67;;
9224;SDS011;4647;48.072;11.616;2024-02-14T04:39:27;2.23;;;1.23;;
9224;SDS011;4647;48.072;11.616;2024-02-14T04:41:55;3.47;;;1.70;;
9224;SDS011;4647;48.072;11.616;2024-02-14T04:44:24;2.27;;;1.50;;
9224;SDS011;4647;48.072;11.616;2024-02-14T04:46:53;3.70;;;1.73;;
9224;SDS011;4647;48.072;11.616;2024-02-14T04:49:23;5.20;;;1.70;;
9224;SDS011;4647;48.072;11.616;2024-02-14T04:51:54;2.80;;;1.77;;
9224;SDS011;4647;48.072;11.616;2024-02-14T04:54:23;2.00;;;1.50;;
9224;SDS011;4647;48.072;11.616;2024-02-14T04:56:52;1.90;;;1.60;;
9224;SDS011;4647;48.072;11.616;2024-02-14T04:59:20;5.13;;;1.80;;
9224;SDS011;4647;48.072;11.616;2024-02-14T05:01:48;2.33;;;1.63;;
9224;SDS011;4647;48.072;11.616;2024-02-14T05:04:18;2.47;;;1.63;;
9224;SDS011;4647;48.072;11.616;2024-02-14T05:06:47;2.50;;;1.60;;
9224;SDS011;4647;48.072;11.616;2024-02-14T05:09:18;4.70;;;1.70;;
9224;SDS011;4647;48.072;11.616;2024-02-14T05:11:47;2.60;;;1.60;;
9224;SDS011;4647;48.072;11.616;2024-02-14T05:14:15;2.63;;;2.17;;
9224;SDS011;4647;48.072;11.616;2024-02-14T05:16:43;4.37;;;1.80;;
9224;SDS011;4647;48.072;11.616;2024-02-14T05:19:12;4.67;;;1.70;;
9224;SDS011;4647;48.072;11.616;2024-02-14T05:21:40;2.10;;;1.63;;
9224;SDS011;4647;48.072;11.616;2024-02-14T05:24:09;5.83;;;2.03;;
9224;SDS011;4647;48.072;11.616;2024-02-14T05:26:40;4.03;;;2.00;;
9224;SDS011;4647;48.072;11.616;2024-02-14T05:29:08;1.77;;;1.53;;
9224;SDS011;4647;48.072;11.616;2024-02-14T05:31:43;2.10;;;1.70;;
9224;SDS011;4647;48.072;11.616;2024-02-14T05:34:13;5.07;;;2.13;;
9224;SDS011;4647;48.072;11.616;2024-02-14T05:36:45;3.80;;;2.30;;
9224;SDS011;4647;48.072;11.616;2024-02-14T05:39:13;2.83;;;1.77;;
9224;SDS011;4647;48.072;11.616;2024-02-14T05:41:44;3.50;;;2.00;;
9224;SDS011;4647;48.072;11.616;2024-02-14T05:44:14;2.47;;;1.90;;
9224;SDS011;4647;48.072;11.616;2024-02-14T05:46:42;4.20;;;2.10;;
9224;SDS011;4647;48.072;11.616;2024-02-14T05:49:11;4.87;;;2.27;;
9224;SDS011;4647;48.072;11.616;2024-02-14T05:51:39;3.03;;;2.57;;
9224;SDS011;4647;48.072;11.616;2024-02-14T05:54:08;3.70;;;2.00;;
9224;SDS011;4647;48.072;11.616;2024-02-14T05:56:36;4.37;;;2.10;;
9224;SDS011;4647;48.072;11.616;2024-02-14T05:59:07;5.87;;;2.20;;
9224;SDS011;4647;48.072;11.616;2024-02-14T06:01:36;4.33;;;2.00;;
9224;SDS011;4647;48.072;11.616;2024-02-14T06:04:05;4.17;;;2.00;;
9224;SDS011;4647;48.072;11.616;2024-02-14T06:06:33;5.67;;;2.00;;
9224;SDS011;4647;48.072;11.616;2024-02-14T06:09:02;2.87;;;1.90;;
9224;SDS011;4647;48.072;11.616;2024-02-14T06:11:35;3.43;;;2.30;;
9224;SDS011;4647;48.072;11.616;2024-02-14T06:14:04;4.13;;;2.10;;
9224;SDS011;4647;48.072;11.616;2024-02-14T06:16:35;4.77;;;2.27;;
9224;SDS011;4647;48.072;11.616;2024-02-14T06:19:03;4.93;;;2.13;;
9224;SDS011;4647;48.072;11.616;2024-02-14T06:21:32;4.70;;;1.87;;
9224;SDS011;4647;48.072;11.616;2024-02-14T06:24:00;3.23;;;2.30;;
9224;SDS011;4647;48.072;11.616;2024-02-14T06:26:29;5.70;;;2.00;;
9224;SDS011;4647;48.072;11.616;2024-02-14T06:28:58;3.87;;;1.97;;
9224;SDS011;4647;48.072;11.616;2024-02-14T06:31:27;2.47;;;1.90;;
9224;SDS011;4647;48.072;11.616;2024-02-14T06:33:58;4.63;;;2.00;;
9224;SDS011;4647;48.072;11.616;2024-02-14T06:36:26;3.50;;;1.70;;
9224;SDS011;4647;48.072;11.616;2024-02-14T06:38:55;3.57;;;1.47;;
9224;SDS011;4647;48.072;11.616;2024-02-14T06:41:23;2.10;;;1.60;;
9224;SDS011;4647;48.072;11.616;2024-02-14T06:43:52;3.83;;;1.50;;
9224;SDS011;4647;48.072;11.616;2024-02-14T06:46:20;2.63;;;1.70;;
9224;SDS011;4647;48.072;11.616;2024-02-14T06:48:48;3.37;;;1.60;;
9224;SDS011;4647;48.072;11.616;2024-02-14T06:51:19;5.17;;;1.80;;
9224;SDS011;4647;48.072;11.616;2024-02-14T06:53:49;2.97;;;2.10;;
9224;SDS011;4647;48.072;11.616;2024-02-14T06:56:18;7.30;;;2.20;;
9224;SDS011;4647;48.072;11.616;2024-02-14T06:58:46;8.50;;;1.90;;
9224;SDS011;4647;48.072;11.616;2024-02-14T07:01:17;3.83;;;1.80;;
9224;SDS011;4647;48.072;11.616;2024-02-14T07:03:47;4.50;;;2.00;;
9224;SDS011;4647;48.072;11.616;2024-02-14T07:06:16;3.30;;;2.13;;
9224;SDS011;4647;48.072;11.616;2024-02-14T07:08:47;7.13;;;2.00;;
9224;SDS011;4647;48.072;11.616;2024-02-14T07:11:16;3.97;;;2.00;;
9224;SDS011;4647;48.072;11.616;2024-02-14T07:13:44;4.70;;;2.10;;
9224;SDS011;4647;48.072;11.616;2024-02-14T07:16:13;3.13;;;2.13;;
9224;SDS011;4647;48.072;11.616;2024-02-14T07:18:41;3.13;;;2.23;;
9224;SDS011;4647;48.072;11.616;2024-02-14T07:21:09;4.50;;;2.30;;
9224;SDS011;4647;48.072;11.616;2024-02-14T07:23:38;2.87;;;1.90;;
9224;SDS011;4647;48.072;11.616;2024-02-14T07:26:09;3.63;;;1.90;;
9224;SDS011;4647;48.072;11.616;2024-02-14T07:28:37;3.03;;;2.00;;
9224;SDS011;4647;48.072;11.616;2024-02-14T07:31:06;2.90;;;1.80;;
9224;SDS011;4647;48.072;11.616;2024-02-14T07:33:35;5.43;;;1.80;;
9224;SDS011;4647;48.072;11.616;2024-02-14T07:36:03;2.47;;;1.60;;
9224;SDS011;4647;48.072;11.616;2024-02-14T07:38:34;2.90;;;2.30;;
9224;SDS011;4647;48.072;11.616;2024-02-14T07:41:02;3.50;;;1.90;;
9224;SDS011;4647;48.072;11.616;2024-02-14T07:43:34;3.67;;;1.73;;
9224;SDS011;4647;48.072;11.616;2024-02-14T07:46:02;2.33;;;1.30;;
9224;SDS011;4647;48.072;11.616;2024-02-14T07:48:32;1.80;;;1.57;;
9224;SDS011;4647;48.072;11.616;2024-02-14T07:51:00;1.90;;;1.70;;
9224;SDS011;4647;48.072;11.616;2024-02-14T07:53:29;1.90;;;1.60;;
9224;SDS011;4647;48.072;11.616;2024-02-14T07:55:57;2.17;;;1.53;;
9224;SDS011;4647;48.072;11.616;2024-02-14T07:58:25;2.43;;;1.60;;
9224;SDS011;4647;48.072;11.616;2024-02-14T08:00:57;2.67;;;1.60;;
9224;SDS011;4647;48.072;11.616;2024-02-14T08:03:25;2.23;;;1.53;;
9224;SDS011;4647;48.072;11.616;2024-02-14T08:05:54;2.43;;;1.90;;
9224;SDS011;4647;48.072;11.616;2024-02-14T08:08:22;3.00;;;1.60;;
9224;SDS011;4647;48.072;11.616;2024-02-14T08:10:52;2.33;;;1.63;;
9224;SDS011;4647;48.072;11.616;2024-02-14T08:13:20;1.93;;;1.57;;
9224;SDS011;4647;48.072;11.616;2024-02-14T08:15:49;4.03;;;1.70;;
9224;SDS011;4647;48.072;11.616;2024-02-14T08:18:20;2.63;;;1.60;;
9224;SDS011;4647;48.072;11.616;2024-02-14T08:20:48;2.67;;;1.80;;
9224;SDS011;4647;48.072;11.616;2024-02-14T08:23:17;2.20;;;1.80;;
9224;SDS011;4647;48.072;11.616;2024-02-14T08:25:45;2.97;;;1.80;;
9224;SDS011;4647;48.072;11.616;2024-02-14T08:28:14;3.97;;;2.10;;
9224;SDS011;4647;48.072;11.616;2024-02-14T08:30:43;1.97;;;1.47;;
9224;SDS011;4647;48.072;11.616;2024-02-14T08:33:12;12.50;;;5.20;;
9224;SDS011;4647;48.072;11.616;2024-02-14T08:35:43;12.23;;;5.60;;
9224;SDS011;4647;48.072;11.616;2024-02-14T08:38:12;3.60;;;1.63;;
9224;SDS011;4647;48.072;11.616;2024-02-14T08:40:40;2.27;;;1.60;;
9224;SDS011;4647;48.072;11.616;2024-02-14T08:43:09;4.03;;;1.80;;
9224;SDS011;4647;48.072;11.616;2024-02-14T08:45:37;3.00;;;1.73;;
9224;SDS011;4647;48.072;11.616;2024-02-14T08:48:06;2.90;;;2.10;;
9224;SDS011;4647;48.072;11.616;2024-02-14T08:50:35;3.50;;;1.63;;
9224;SDS011;4647;48.072;11.616;2024-02-14T08:53:06;3.70;;;1.90;;
9224;SDS011;4647;48.072;11.616;2024-02-14T08:55:34;2.67;;;1.70;;
9224;SDS011;4647;48.072;11.616;2024-02-14T08:58:03;3.17;;;1.57;;
9224;SDS011;4647;48.072;11.616;2024-02-14T09:00:34;3.90;;;1.40;;
9224;SDS011;4647;48.072;11.616;2024-02-14T09:03:04;7.13;;;1.70;;
9224;SDS011;4647;48.072;11.616;2024-02-14T09:05:33;2.13;;;1.53;;
9224;SDS011;4647;48.072;11.616;2024-02-14T09:08:06;3.30;;;1.70;;
9224;SDS011;4647;48.072;11.616;2024-02-14T09:10:34;3.13;;;1.60;;
9224;SDS011;4647;48.072;11.616;2024-02-14T09:13:03;3.77;;;1.43;;
9224;SDS011;4647;48.072;11.616;2024-02-14T09:15:32;1.90;;;1.60;;
9224;SDS011;4647;48.072;11.616;2024-02-14T09:18:00;1.57;;;1.47;;
9224;SDS011;4647;48.072;11.616;2024-02-14T09:20:29;4.30;;;1.47;;
9224;SDS011;4647;48.072;11.616;2024-02-14T09:22:57;2.30;;;1.50;;
9224;SDS011;4647;48.072;11.616;2024-02-14T09:25:28;3.33;;;1.83;;
9224;SDS011;4647;48.072;11.616;2024-02-14T09:27:57;1.90;;;1.63;;
9224;SDS011;4647;48.072;11.616;2024-02-14T09:30:25;3.63;;;1.77;;
9224;SDS011;4647;48.072;11.616;2024-02-14T09:32:54;2.73;;;1.70;;
9224;SDS011;4647;48.072;11.616;2024-02-14T09:35:22;3.10;;;1.67;;
9224;SDS011;4647;48.072;11.616;2024-02-14T09:37:51;1.73;;;1.50;;
9224;SDS011;4647;48.072;11.616;2024-02-14T09:40:20;2.53;;;1.70;;
9224;SDS011;4647;48.072;11.616;2024-02-14T09:42:52;3.10;;;1.97;;
9224;SDS011;4647;48.072;11.616;2024-02-14T09:45:24;3.30;;;1.67;;
9224;SDS011;4647;48.072;11.616;2024-02-14T09:47:53;2.57;;;1.53;;
9224;SDS011;4647;48.072;11.616;2024-02-14T09:50:22;3.37;;;1.80;;
9224;SDS011;4647;48.072;11.616;2024-02-14T09:52:52;2.60;;;1.67;;
9224;SDS011;4647;48.072;11.616;2024-02-14T09:55:22;2.17;;;1.40;;
9224;SDS011;4647;48.072;11.616;2024-02-14T09:57:55;2.70;;;1.50;;
9224;SDS011;4647;48.072;11.616;2024-02-14T10:00:29;3.53;;;1.60;;
9224;SDS011;4647;48.072;11.616;2024-02-14T10:02:59;2.33;;;1.40;;
9224;SDS011;4647;48.072;11.616;2024-02-14T10:05:27;2.00;;;1.50;;
9224;SDS011;4647;48.072;11.616;2024-02-14T10:07:56;6.70;;;1.70;;
9224;SDS011;4647;48.072;11.616;2024-02-14T10:10:26;1.73;;;1.40;;
9224;SDS011;4647;48.072;11.616;2024-02-14T10:12:57;2.67;;;1.47;;
9224;SDS011;4647;48.072;11.616;2024-02-14T10:15:26;1.80;;;1.30;;
9224;SDS011;4647;48.072;11.616;2024-02-14T10:17:55;1.90;;;1.23;;
9224;SDS011;4647;48.072;11.616;2024-02-14T10:20:26;3.83;;;1.48;;
9224;SDS011;4647;48.072;11.616;2024-02-14T10:23:00;2.43;;;1.40;;
9224;SDS011;4647;48.072;11.616;2024-02-14T10:25:29;4.30;;;1.40;;
9224;SDS011;4647;48.072;11.616;2024-02-14T10:28:02;1.30;;;1.13;;
9224;SDS011;4647;48.072;11.616;2024-02-14T10:30:33;1.93;;;1.37;;
9224;SDS011;4647;48.072;11.616;2024-02-14T10:33:03;3.53;;;1.50;;
9224;SDS011;4647;48.072;11.616;2024-02-14T10:35:32;1.70;;;1.47;;
9224;SDS011;4647;48.072;11.616;2024-02-14T10:38:03;2.53;;;1.40;;
9224;SDS011;4647;48.072;11.616;2024-02-14T10:40:34;1.47;;;1.30;;
9224;SDS011;4647;48.072;11.616;2024-02-14T10:43:06;1.53;;;1.23;;
9224;SDS011;4647;48.072;11.616;2024-02-14T10:45:35;1.90;;;1.60;;
9224;SDS011;4647;48.072;11.616;2024-02-14T10:48:05;3.97;;;1.57;;
9224;SDS011;4647;48.072;11.616;2024-02-14T10:50:34;2.20;;;1.57;;
9224;SDS011;4647;48.072;11.616;2024-02-14T10:53:04;3.03;;;1.70;;
9224;SDS011;4647;48.072;11.616;2024-02-14T10:55:33;1.47;;;1.27;;
9224;SDS011;4647;48.072;11.616;2024-02-14T10:58:02;1.50;;;1.33;;
9224;SDS011;4647;48.072;11.616;2024-02-14T11:00:34;2.03;;;1.30;;
9224;SDS011;4647;48.072;11.616;2024-02-14T11:03:02;4.20;;;1.60;;
9224;SDS011;4647;48.072;11.616;2024-02-14T11:05:31;2.50;;;1.50;;
9224;SDS011;4647;48.072;11.616;2024-02-14T11:08:12;2.00;;;1.40;;
9224;SDS011;4647;48.072;11.616;2024-02-14T11:10:41;2.30;;;1.30;;
9224;SDS011;4647;48.072;11.616;2024-02-14T11:13:10;2.47;;;1.40;;
9224;SDS011;4647;48.072;11.616;2024-02-14T11:15:46;2.37;;;1.20;;
9224;SDS011;4647;48.072;11.616;2024-02-14T11:18:24;2.10;;;1.27;;
9224;SDS011;4647;48.072;11.616;2024-02-14T11:20:55;1.80;;;1.30;;
9224;SDS011;4647;48.072;11.616;2024-02-14T11:23:25;2.97;;;1.30;;
9224;SDS011;4647;48.072;11.616;2024-02-14T11:25:59;3.33;;;1.40;;
9224;SDS011;4647;48.072;11.616;2024-02-14T11:28:28;1.60;;;1.20;;
9224;SDS011;4647;48.072;11.616;2024-02-14T11:31:01;1.20;;;1.10;;
9224;SDS011;4647;48.072;11.616;2024-02-14T11:33:30;3.70;;;1.40;;
9224;SDS011;4647;48.072;11.616;2024-02-14T11:35:59;2.50;;;1.30;;
9224;SDS011;4647;48.072;11.616;2024-02-14T11:38:36;1.30;;;1.20;;
9224;SDS011;4647;48.072;11.616;2024-02-14T11:41:04;2.90;;;1.10;;
9224;SDS011;4647;48.072;11.616;2024-02-14T11:43:34;2.53;;;1.20;;
9224;SDS011;4647;48.072;11.616;2024-02-14T11:46:07;1.40;;;1.30;;
9224;SDS011;4647;48.072;11.616;2024-02-14T11:48:35;2.63;;;1.20;;
9224;SDS011;4647;48.072;11.616;2024-02-14T11:51:04;1.20;;;1.10;;
9224;SDS011;4647;48.072;11.616;2024-02-14T11:53:33;2.93;;;1.10;;
9224;SDS011;4647;48.072;11.616;2024-02-14T11:56:01;1.83;;;1.37;;
9224;SDS011;4647;48.072;11.616;2024-02-14T11:58:30;1.30;;;1.10;;
9224;SDS011;4647;48.072;11.616;2024-02-14T12:00:59;2.70;;;1.30;;
9224;SDS011;4647;48.072;11.616;2024-02-14T12:03:34;2.23;;;1.33;;
9224;SDS011;4647;48.072;11.616;2024-02-14T12:06:04;2.53;;;1.30;;
9224;SDS011;4647;48.072;11.616;2024-02-14T12:08:33;1.43;;;1.20;;
9224;SDS011;4647;48.072;11.616;2024-02-14T12:11:02;1.40;;;1.30;;
9224;SDS011;4647;48.072;11.616;2024-02-14T12:13:30;1.27;;;1.10;;
9224;SDS011;4647;48.072;11.616;2024-02-14T12:16:03;1.40;;;1.30;;
9224;SDS011;4647;48.072;11.616;2024-02-14T12:18:37;2.30;;;1.10;;
9224;SDS011;4647;48.072;11.616;2024-02-14T12:21:06;2.27;;;1.23;;
9224;SDS011;4647;48.072;11.616;2024-02-14T12:23:35;1.77;;;1.20;;
9224;SDS011;4647;48.072;11.616;2024-02-14T12:26:04;2.07;;;1.30;;
9224;SDS011;4647;48.072;11.616;2024-02-14T12:28:30;1.97;;;1.00;;
9224;SDS011;4647;48.072;11.616;2024-02-14T12:30:59;1.43;;;1.20;;
9224;SDS011;4647;48.072;11.616;2024-02-14T12:33:28;1.30;;;1.17;;
9224;SDS011;4647;48.072;11.616;2024-02-14T12:36:00;1.23;;;1.10;;
9224;SDS011;4647;48.072;11.616;2024-02-14T12:38:28;2.07;;;1.20;;
9224;SDS011;4647;48.072;11.616;2024-02-14T12:40:57;1.50;;;1.07;;
9224;SDS011;4647;48.072;11.616;2024-02-14T12:43:27;2.00;;;1.30;;
9224;SDS011;4647;48.072;11.616;2024-02-14T12:45:55;1.63;;;1.20;;
9224;SDS011;4647;48.072;11.616;2024-02-14T12:48:24;1.30;;;1.20;;
9224;SDS011;4647;48.072;11.616;2024-02-14T12:50:53;1.20;;;1.00;;
9224;SDS011;4647;48.072;11.616;2024-02-14T12:53:25;1.73;;;1.30;;
9224;SDS011;4647;48.072;11.616;2024-02-14T12:55:53;2.17;;;1.10;;
9224;SDS011;4647;48.072;11.616;2024-02-14T12:58:22;4.33;;;1.10;;
9224;SDS011;4647;48.072;11.616;2024-02-14T13:00:50;2.10;;;1.20;;
9224;SDS011;4647;48.072;11.616;2024-02-14T13:03:19;1.23;;;1.10;;
9224;SDS011;4647;48.072;11.616;2024-02-14T13:05:47;1.17;;;1.03;;
9224;SDS011;4647;48.072;11.616;2024-02-14T13:08:19;1.20;;;0.97;;
9224;SDS011;4647;48.072;11.616;2024-02-14T13:10:51;1.10;;;1.00;;
9224;SDS011;4647;48.072;11.616;2024-02-14T13:13:19;1.57;;;1.20;;
9224;SDS011;4647;48.072;11.616;2024-02-14T13:15:48;3.47;;;1.33;;
9224;SDS011;4647;48.072;11.616;2024-02-14T13:18:17;1.33;;;1.03;;
9224;SDS011;4647;48.072;11.616;2024-02-14T13:20:46;1.70;;;0.90;;
9224;SDS011;4647;48.072;11.616;2024-02-14T13:23:21;1.70;;;1.07;;
9224;SDS011;4647;48.072;11.616;2024-02-14T13:25:52;1.77;;;1.00;;
9224;SDS011;4647;48.072;11.616;2024-02-14T13:28:21;1.03;;;0.97;;
9224;SDS011;4647;48.072;11.616;2024-02-14T13:30:49;1.27;;;1.00;;
9224;SDS011;4647;48.072;11.616;2024-02-14T13:33:18;3.37;;;1.10;;
9224;SDS011;4647;48.072;11.616;2024-02-14T13:35:46;1.23;;;1.13;;
9224;SDS011;4647;48.072;11.616;2024-02-14T13:38:14;2.33;;;1.03;;
9224;SDS011;4647;48.072;11.616;2024-02-14T13:40:43;2.13;;;1.10;;
9224;SDS011;4647;48.072;11.616;2024-02-14T13:43:14;1.53;;;1.20;;
9224;SDS011;4647;48.072;11.616;2024-02-14T13:45:43;1.23;;;1.13;;
9224;SDS011;4647;48.072;11.616;2024-02-14T13:48:13;2.10;;;1.30;;
9224;SDS011;4647;48.072;11.616;2024-02-14T13:50:42;1.60;;;1.00;;
9224;SDS011;4647;48.072;11.616;2024-02-14T13:53:10;2.63;;;1.10;;
9224;SDS011;4647;48.072;11.616;2024-02-14T13:55:38;1.10;;;1.00;;
9224;SDS011;4647;48.072;11.616;2024-02-14T13:58:07;1.83;;;1.37;;
9224;SDS011;4647;48.072;11.616;2024-02-14T14:00:44;1.30;;;1.00;;
9224;SDS011;4647;48.072;11.616;2024-02-14T14:03:13;2.37;;;1.30;;
9224;SDS011;4647;48.072;11.616;2024-02-14T14:05:41;2.17;;;1.33;;
9224;SDS011;4647;48.072;11.616;2024-02-14T14:08:09;2.50;;;1.30;;
9224;SDS011;4647;48.072;11.616;2024-02-14T14:10:38;1.20;;;1.10;;
9224;SDS011;4647;48.072;11.616;2024-02-14T14:13:08;1.70;;;1.23;;
9224;SDS011;4647;48.072;11.616;2024-02-14T14:15:37;1.57;;;1.10;;
9224;SDS011;4647;48.072;11.616;2024-02-14T14:18:08;2.37;;;0.90;;
9224;SDS011;4647;48.072;11.616;2024-02-14T14:20:37;2.23;;;1.00;;
9224;SDS011;4647;48.072;11.616;2024-02-14T14:23:05;1.73;;;1.00;;
9224;SDS011;4647;48.072;11.616;2024-02-14T14:25:34;3.27;;;1.10;;
9224;SDS011;4647;48.072;11.616;2024-02-14T14:28:03;1.70;;;1.10;;
9224;SDS011;4647;48.072;11.616;2024-02-14T14:30:32;2.03;;;1.23;;
9224;SDS011;4647;48.072;11.616;2024-02-14T14:33:01;1.90;;;1.30;;
9224;SDS011;4647;48.072;11.616;2024-02-14T14:35:32;1.33;;;1.10;;
9224;SDS011;4647;48.072;11.616;2024-02-14T14:38:01;1.63;;;1.10;;
9224;SDS011;4647;48.072;11.616;2024-02-14T14:40:31;1.60;;;1.13;;
9224;SDS011;4647;48.072;11.616;2024-02-14T14:43:01;2.53;;;0.93;;
9224;SDS011;4647;48.072;11.616;2024-02-14T14:45:30;1.30;;;1.20;;
9224;SDS011;4647;48.072;11.616;2024-02-14T14:47:58;0.83;;;0.83;;
9224;SDS011;4647;48.072;11.616;2024-02-14T14:50:27;1.07;;;0.90;;
9224;SDS011;4647;48.072;11.616;2024-02-14T14:52:58;2.93;;;1.10;;
9224;SDS011;4647;48.072;11.616;2024-02-14T14:55:27;2.40;;;1.00;;
9224;SDS011;4647;48.072;11.616;2024-02-14T14:58:18;3.13;;;1.10;;
9224;SDS011;4647;48.072;11.616;2024-02-14T15:00:47;1.57;;;1.17;;
9224;SDS011;4647;48.072;11.616;2024-02-14T15:03:15;1.63;;;0.93;;
9224;SDS011;4647;48.072;11.616;2024-02-14T15:05:44;1.73;;;1.00;;
9224;SDS011;4647;48.072;11.616;2024-02-14T15:08:15;1.37;;;1.10;;
9224;SDS011;4647;48.072;11.616;2024-02-14T15:10:48;2.70;;;1.00;;
9224;SDS011;4647;48.072;11.616;2024-02-14T15:13:17;1.83;;;1.00;;